createdAt,value
2022-11-01T00:01:46.922Z,16.29
2022-11-01T00:04:13.610Z,16.19
2022-11-01T00:06:40.266Z,16.08
2022-11-01T00:09:07.611Z,16.07
2022-11-01T00:11:34.190Z,16.02
2022-11-01T00:14:00.814Z,16.03
2022-11-01T00:16:27.832Z,16.03
2022-11-01T00:18:54.758Z,16.06
2022-11-01T00:21:21.576Z,16.07
2022-11-01T00:23:48.242Z,16.03
2022-11-01T00:26:20.688Z,16.03
2022-11-01T00:28:48.046Z,16.04
2022-11-01T00:31:16.492Z,16.11
2022-11-01T00:33:43.292Z,16.18
2022-11-01T00:36:10.332Z,16.13
2022-11-01T00:38:36.960Z,16.21
2022-11-01T00:41:04.437Z,16.11
2022-11-01T00:43:31.891Z,16.03
2022-11-01T00:45:59.045Z,16.09
2022-11-01T00:48:25.662Z,16.07
2022-11-01T00:50:52.615Z,16.08
2022-11-01T00:53:19.345Z,16.18
2022-11-01T00:55:46.106Z,16.27
2022-11-01T00:58:12.830Z,16.20
2022-11-01T01:00:39.536Z,16.28
2022-11-01T01:03:06.483Z,16.15
2022-11-01T01:05:34.410Z,15.99
2022-11-01T01:08:01.367Z,15.91
2022-11-01T01:10:28.198Z,15.98
2022-11-01T01:12:54.757Z,16.05
2022-11-01T01:15:21.407Z,16.08
2022-11-01T01:17:48.083Z,15.97
2022-11-01T01:20:14.784Z,15.91
2022-11-01T01:22:42.487Z,15.95
2022-11-01T01:25:10.519Z,16.04
2022-11-01T01:27:37.296Z,16.07
2022-11-01T01:30:07.567Z,16.13
2022-11-01T01:32:34.471Z,16.19
2022-11-01T01:35:01.099Z,16.14
2022-11-01T01:37:27.741Z,16.01
2022-11-01T01:39:54.533Z,16.06
2022-11-01T01:42:31.060Z,16.07
2022-11-01T01:44:57.514Z,16.00
2022-11-01T01:47:30.192Z,16.14
2022-11-01T01:50:00.716Z,16.22
2022-11-01T01:52:30.984Z,16.35
2022-11-01T01:55:00.351Z,16.41
2022-11-01T01:57:27.000Z,16.43
2022-11-01T01:59:53.795Z,16.48
2022-11-01T02:02:21.557Z,16.47
2022-11-01T02:04:54.010Z,16.54
2022-11-01T02:07:20.656Z,16.55
2022-11-01T02:09:47.861Z,16.62
2022-11-01T02:12:14.866Z,16.71
2022-11-01T02:14:43.900Z,16.70
2022-11-01T02:17:28.188Z,16.75
2022-11-01T02:20:13.114Z,16.75
2022-11-01T02:23:15.617Z,16.72
2022-11-01T02:26:05.844Z,16.75
2022-11-01T02:29:01.780Z,16.76
2022-11-01T02:31:52.822Z,16.77
2022-11-01T02:34:29.796Z,16.83
2022-11-01T02:37:01.762Z,16.73
2022-11-01T02:39:34.117Z,16.73
2022-11-01T02:42:15.046Z,16.69
2022-11-01T02:44:53.253Z,16.71
2022-11-01T02:47:20.283Z,16.77
2022-11-01T02:49:51.483Z,16.81
2022-11-01T02:52:22.154Z,16.80
2022-11-01T02:54:57.326Z,16.65
2022-11-01T02:57:28.851Z,16.36
2022-11-01T03:00:04.357Z,15.98
2022-11-01T03:02:44.174Z,15.69
2022-11-01T03:05:26.798Z,15.41
2022-11-01T03:08:00.103Z,15.23
2022-11-01T03:10:37.628Z,15.27
2022-11-01T03:13:32.405Z,15.33
2022-11-01T03:16:23.002Z,15.33
2022-11-01T03:19:06.213Z,15.20
2022-11-01T03:21:40.975Z,15.15
2022-11-01T03:24:27.292Z,15.27
2022-11-01T03:27:02.410Z,15.38
2022-11-01T03:29:31.951Z,15.52
2022-11-01T03:32:01.074Z,15.59
2022-11-01T03:34:27.644Z,15.43
2022-11-01T03:37:00.946Z,15.40
2022-11-01T03:39:33.894Z,15.41
2022-11-01T03:42:07.736Z,15.44
2022-11-01T03:44:41.008Z,15.49
2022-11-01T03:47:08.177Z,15.53
2022-11-01T03:49:34.804Z,15.60
2022-11-01T03:52:01.338Z,15.68
2022-11-01T03:54:29.109Z,15.77
2022-11-01T03:56:56.270Z,15.80
2022-11-01T03:59:26.172Z,15.70
2022-11-01T04:01:52.927Z,15.64
2022-11-01T04:04:19.668Z,15.71
2022-11-01T04:06:46.217Z,15.86
2022-11-01T04:09:12.780Z,15.97
2022-11-01T04:11:39.364Z,16.03
2022-11-01T04:14:24.701Z,16.02
2022-11-01T04:17:09.700Z,15.99
2022-11-01T04:19:55.141Z,15.99
2022-11-01T04:22:24.497Z,15.98
2022-11-01T04:24:51.381Z,15.93
2022-11-01T04:27:18.129Z,15.87
2022-11-01T04:29:44.737Z,15.87
2022-11-01T04:32:11.292Z,15.96
2022-11-01T04:34:43.742Z,16.04
2022-11-01T04:37:12.075Z,16.14
2022-11-01T04:39:38.622Z,16.11
2022-11-01T04:42:05.412Z,16.06
2022-11-01T04:44:31.975Z,15.89
2022-11-01T04:46:58.592Z,15.69
2022-11-01T04:49:25.162Z,15.42
2022-11-01T04:51:51.688Z,15.17
2022-11-01T04:54:18.340Z,15.14
2022-11-01T04:56:44.888Z,15.22
2022-11-01T04:59:11.424Z,15.32
2022-11-01T05:01:38.172Z,15.48
2022-11-01T05:04:04.932Z,15.60
2022-11-01T05:06:32.079Z,15.70
2022-11-01T05:08:58.633Z,15.73
2022-11-01T05:11:25.821Z,15.73
2022-11-01T05:13:52.611Z,15.71
2022-11-01T05:16:20.763Z,15.67
2022-11-01T05:18:48.862Z,15.63
2022-11-01T05:21:15.512Z,15.68
2022-11-01T05:23:42.049Z,15.74
2022-11-01T05:26:08.689Z,15.75
2022-11-01T05:28:35.301Z,15.73
2022-11-01T05:31:01.897Z,15.74
2022-11-01T05:33:28.423Z,15.82
2022-11-01T05:35:55.004Z,15.95
2022-11-01T05:38:21.690Z,16.06
2022-11-01T05:40:48.674Z,16.12
2022-11-01T05:43:15.411Z,16.14
2022-11-01T05:45:42.005Z,16.19
2022-11-01T05:48:09.238Z,16.25
2022-11-01T05:50:35.801Z,16.29
2022-11-01T05:53:07.431Z,16.29
2022-11-01T05:55:34.779Z,16.20
2022-11-01T05:58:01.493Z,16.14
2022-11-01T06:00:28.123Z,16.10
2022-11-01T06:03:00.870Z,16.09
2022-11-01T06:05:28.319Z,16.08
2022-11-01T06:07:55.214Z,16.22
2022-11-01T06:10:22.281Z,16.30
2022-11-01T06:12:49.137Z,16.33
2022-11-01T06:15:15.688Z,16.31
2022-11-01T06:17:42.397Z,16.27
2022-11-01T06:20:09.221Z,16.28
2022-11-01T06:22:36.634Z,16.31
2022-11-01T06:25:05.681Z,16.36
2022-11-01T06:27:32.629Z,16.35
2022-11-01T06:29:59.206Z,16.36
2022-11-01T06:32:25.771Z,16.32
2022-11-01T06:34:52.358Z,16.41
2022-11-01T06:37:18.968Z,16.51
2022-11-01T06:39:45.567Z,16.54
2022-11-01T06:42:12.154Z,16.52
2022-11-01T06:44:38.685Z,16.53
2022-11-01T06:47:05.282Z,16.53
2022-11-01T06:49:31.898Z,16.42
2022-11-01T06:51:58.711Z,16.40
2022-11-01T06:54:25.730Z,16.37
2022-11-01T06:56:52.335Z,16.35
2022-11-01T06:59:18.986Z,16.38
2022-11-01T07:01:45.739Z,16.34
2022-11-01T07:06:44.606Z,16.40
2022-11-01T07:09:11.317Z,16.39
2022-11-01T07:11:38.550Z,16.41
2022-11-01T07:14:05.540Z,16.44
2022-11-01T07:16:32.855Z,16.51
2022-11-01T07:18:59.445Z,16.53
2022-11-01T07:21:26.320Z,16.52
2022-11-01T07:23:54.072Z,16.53
2022-11-01T07:26:21.554Z,16.54
2022-11-01T07:28:48.182Z,16.56
2022-11-01T07:31:14.768Z,16.49
2022-11-01T07:33:41.606Z,16.44
2022-11-01T07:36:08.637Z,16.43
2022-11-01T07:38:35.192Z,16.40
2022-11-01T07:41:04.338Z,16.54
2022-11-01T07:43:31.041Z,16.66
2022-11-01T07:46:00.993Z,16.67
2022-11-01T07:48:27.750Z,16.69
2022-11-01T07:50:56.951Z,16.77
2022-11-01T07:53:23.941Z,16.87
2022-11-01T07:55:50.698Z,16.87
2022-11-01T07:58:17.698Z,16.96
2022-11-01T08:00:45.465Z,16.99
2022-11-01T08:03:15.281Z,17.09
2022-11-01T08:05:42.302Z,17.10
2022-11-01T08:08:09.488Z,17.13
2022-11-01T08:10:37.118Z,17.19
2022-11-01T08:13:16.782Z,17.19
2022-11-01T08:15:43.712Z,17.23
2022-11-01T08:18:10.715Z,17.11
2022-11-01T08:20:37.830Z,17.30
2022-11-01T08:23:05.337Z,17.41
2022-11-01T08:25:32.205Z,17.56
2022-11-01T08:28:04.301Z,17.67
2022-11-01T08:30:31.094Z,17.72
2022-11-01T08:32:59.745Z,17.77
2022-11-01T08:35:26.798Z,17.82
2022-11-01T08:37:54.077Z,17.84
2022-11-01T08:40:21.750Z,17.91
2022-11-01T08:42:48.925Z,17.93
2022-11-01T08:45:16.181Z,17.88
2022-11-01T08:47:43.330Z,17.86
2022-11-01T08:50:12.817Z,17.80
2022-11-01T08:52:40.562Z,17.71
2022-11-01T08:55:09.401Z,17.71
2022-11-01T08:57:36.002Z,17.67
2022-11-01T09:00:04.369Z,17.66
2022-11-01T09:02:31.265Z,17.70
2022-11-01T09:04:57.947Z,17.77
2022-11-01T09:07:24.654Z,17.79
2022-11-01T09:09:51.222Z,17.76
2022-11-01T09:12:23.411Z,17.82
2022-11-01T09:14:51.099Z,17.86
2022-11-01T09:17:17.621Z,17.88
2022-11-01T09:19:44.154Z,17.90
2022-11-01T09:22:10.690Z,17.88
2022-11-01T09:24:37.281Z,18.04
2022-11-01T09:27:03.855Z,18.21
2022-11-01T09:29:30.469Z,18.36
2022-11-01T09:31:57.093Z,18.65
2022-11-01T09:34:23.896Z,19.03
2022-11-01T09:36:50.509Z,19.35
2022-11-01T09:39:20.255Z,19.59
2022-11-01T09:41:49.885Z,19.84
2022-11-01T09:44:21.509Z,19.80
2022-11-01T09:47:02.737Z,19.45
2022-11-01T09:49:33.714Z,19.17
2022-11-01T09:52:00.777Z,18.92
2022-11-01T09:54:28.353Z,18.77
2022-11-01T09:57:03.234Z,18.85
2022-11-01T09:59:53.201Z,19.08
2022-11-01T10:02:41.346Z,19.39
2022-11-01T10:05:35.920Z,19.74
2022-11-01T10:08:08.522Z,19.85
2022-11-01T10:10:36.791Z,19.97
2022-11-01T10:13:09.389Z,20.18
2022-11-01T10:15:36.032Z,20.38
2022-11-01T10:18:28.104Z,20.45
2022-11-01T10:21:01.702Z,20.39
2022-11-01T10:23:35.362Z,20.31
2022-11-01T10:26:04.102Z,20.41
2022-11-01T10:28:34.503Z,20.55
2022-11-01T10:31:14.186Z,20.71
2022-11-01T10:33:48.323Z,20.62
2022-11-01T10:36:21.297Z,20.44
2022-11-01T10:39:54.108Z,20.30
2022-11-01T10:42:20.832Z,20.30
2022-11-01T10:44:55.387Z,20.61
2022-11-01T10:47:24.824Z,20.87
2022-11-01T10:50:05.943Z,22.08
2022-11-01T10:52:49.769Z,25.65
2022-11-01T10:55:24.693Z,28.02
2022-11-01T10:58:03.594Z,30.46
2022-11-01T11:00:34.681Z,32.94
2022-11-01T11:03:16.785Z,34.61
2022-11-01T11:05:44.020Z,35.43
2022-11-01T11:08:17.094Z,36.21
2022-11-01T11:10:45.187Z,37.06
2022-11-01T11:13:15.382Z,37.73
2022-11-01T11:16:05.399Z,38.26
2022-11-01T11:18:36.593Z,38.57
2022-11-01T11:21:08.647Z,38.84
2022-11-01T11:23:44.206Z,39.13
2022-11-01T11:26:19.620Z,39.06
2022-11-01T11:28:51.907Z,38.88
2022-11-01T11:31:23.229Z,38.62
2022-11-01T11:34:04.682Z,38.75
2022-11-01T11:36:37.751Z,39.22
2022-11-01T11:39:05.239Z,39.58
2022-11-01T11:41:39.260Z,39.52
2022-11-01T11:44:38.437Z,39.70
2022-11-01T11:47:04.889Z,39.66
2022-11-01T11:49:32.357Z,39.33
2022-11-01T11:51:59.373Z,39.70
2022-11-01T11:54:38.132Z,40.07
2022-11-01T11:57:17.767Z,39.39
2022-11-01T12:02:26.556Z,38.79
2022-11-01T12:04:56.928Z,39.01
2022-11-01T12:07:37.785Z,38.89
2022-11-01T12:10:06.862Z,38.52
2022-11-01T12:12:40.553Z,38.17
2022-11-01T12:15:28.716Z,38.24
2022-11-01T12:17:56.610Z,38.01
2022-11-01T12:20:25.767Z,37.92
2022-11-01T12:23:06.993Z,37.95
2022-11-01T12:25:35.802Z,37.66
2022-11-01T12:28:09.242Z,37.05
2022-11-01T12:30:37.863Z,36.39
2022-11-01T12:33:21.727Z,35.62
2022-11-01T12:35:48.948Z,34.53
2022-11-01T12:38:27.747Z,32.23
2022-11-01T12:40:55.130Z,29.75
2022-11-01T12:43:56.297Z,27.73
2022-11-01T12:46:33.669Z,26.45
2022-11-01T12:49:07.952Z,25.58
2022-11-01T12:51:44.351Z,24.78
2022-11-01T12:54:20.180Z,24.15
2022-11-01T12:56:46.786Z,23.49
2022-11-01T12:59:18.385Z,23.20
2022-11-01T13:02:19.624Z,22.73
2022-11-01T13:04:56.529Z,22.30
2022-11-01T13:07:55.837Z,22.08
2022-11-01T13:10:30.163Z,21.95
2022-11-01T13:13:30.307Z,21.98
2022-11-01T13:16:08.986Z,21.88
2022-11-01T13:18:47.898Z,21.93
2022-11-01T13:21:33.020Z,21.88
2022-11-01T13:24:20.512Z,21.80
2022-11-01T13:26:55.312Z,21.71
2022-11-01T13:29:37.043Z,21.65
2022-11-01T13:32:30.186Z,21.60
2022-11-01T13:35:23.230Z,21.57
2022-11-01T13:38:20.312Z,21.51
2022-11-01T13:41:20.785Z,21.46
2022-11-01T13:43:54.866Z,21.38
2022-11-01T13:46:21.394Z,21.36
2022-11-01T13:49:09.607Z,21.42
2022-11-01T13:51:56.650Z,21.38
2022-11-01T13:54:32.474Z,21.29
2022-11-01T13:57:09.616Z,21.24
2022-11-01T13:59:45.250Z,21.18
2022-11-01T14:02:23.965Z,21.02
2022-11-01T14:05:04.029Z,20.93
2022-11-01T14:07:37.027Z,20.86
2022-11-01T14:10:19.078Z,20.89
2022-11-01T14:13:06.942Z,20.79
2022-11-01T14:15:39.230Z,20.73
2022-11-01T14:18:11.305Z,20.83
2022-11-01T14:20:43.727Z,20.94
2022-11-01T14:23:42.865Z,20.92
2022-11-01T14:26:18.429Z,20.70
2022-11-01T14:28:46.802Z,20.63
2022-11-01T14:31:15.046Z,20.55
2022-11-01T14:33:42.969Z,20.51
2022-11-01T14:36:13.075Z,20.47
2022-11-01T14:39:21.570Z,20.49
2022-11-01T14:41:55.217Z,20.41
2022-11-01T14:44:34.844Z,20.34
2022-11-01T14:47:10.898Z,20.29
2022-11-01T14:49:43.542Z,20.29
2022-11-01T14:52:32.197Z,20.24
2022-11-01T14:55:18.541Z,20.05
2022-11-01T14:57:48.472Z,19.92
2022-11-01T15:00:33.366Z,19.84
2022-11-01T15:03:01.562Z,19.75
2022-11-01T15:05:28.635Z,19.77
2022-11-01T15:07:59.244Z,19.70
2022-11-01T15:10:26.766Z,19.58
2022-11-01T15:12:55.286Z,19.53
2022-11-01T15:15:24.969Z,19.43
2022-11-01T15:17:56.872Z,19.34
2022-11-01T15:20:28.992Z,19.19
2022-11-01T15:22:57.851Z,19.15
2022-11-01T15:25:26.663Z,19.10
2022-11-01T15:27:55.815Z,19.05
2022-11-01T15:30:22.418Z,18.99
2022-11-01T15:33:12.647Z,18.94
2022-11-01T15:35:39.851Z,18.80
2022-11-01T15:38:20.747Z,18.76
2022-11-01T15:40:48.865Z,18.67
2022-11-01T15:43:22.057Z,18.58
2022-11-01T15:46:01.572Z,18.52
2022-11-01T15:48:35.698Z,18.40
2022-11-01T15:51:07.088Z,18.32
2022-11-01T15:53:36.687Z,18.29
2022-11-01T15:56:18.067Z,18.24
2022-11-01T16:01:26.430Z,18.12
2022-11-01T16:04:11.181Z,18.08
2022-11-01T16:06:56.598Z,18.01
2022-11-01T16:09:30.733Z,17.95
2022-11-01T16:12:00.349Z,17.91
2022-11-01T16:14:33.570Z,17.85
2022-11-01T16:17:06.408Z,17.83
2022-11-01T16:19:40.093Z,17.80
2022-11-01T16:22:27.995Z,17.74
2022-11-01T16:25:13.703Z,17.70
2022-11-01T16:27:58.902Z,17.64
2022-11-01T16:30:54.787Z,17.60
2022-11-01T16:33:44.181Z,17.52
2022-11-01T16:36:20.135Z,17.50
2022-11-01T16:38:49.238Z,17.41
2022-11-01T16:41:39.779Z,17.37
2022-11-01T16:44:16.573Z,17.33
2022-11-01T16:46:43.419Z,17.27
2022-11-01T16:49:26.198Z,17.23
2022-11-01T16:51:56.368Z,17.22
2022-11-01T16:54:25.135Z,17.20
2022-11-01T16:56:54.647Z,17.17
2022-11-01T16:59:33.750Z,17.14
2022-11-01T17:02:02.468Z,17.11
2022-11-01T17:04:29.770Z,17.07
2022-11-01T17:06:59.846Z,17.02
2022-11-01T17:09:31.283Z,16.97
2022-11-01T17:11:58.438Z,16.93
2022-11-01T17:14:26.487Z,16.93
2022-11-01T17:16:56.651Z,16.83
2022-11-01T17:19:29.882Z,16.72
2022-11-01T17:21:59.680Z,16.63
2022-11-01T17:24:29.378Z,16.67
2022-11-01T17:27:00.637Z,16.65
2022-11-01T17:29:27.490Z,16.71
2022-11-01T17:31:54.187Z,16.73
2022-11-01T17:34:20.937Z,16.72
2022-11-01T17:36:49.588Z,16.70
2022-11-01T17:39:16.606Z,16.63
2022-11-01T17:41:43.798Z,16.60
2022-11-01T17:44:13.747Z,16.59
2022-11-01T17:46:40.510Z,16.60
2022-11-01T17:49:07.546Z,16.61
2022-11-01T17:51:34.220Z,16.50
2022-11-01T17:54:01.174Z,16.35
2022-11-01T17:56:27.825Z,16.29
2022-11-01T17:58:54.688Z,16.29
2022-11-01T18:01:22.008Z,16.30
2022-11-01T18:03:49.552Z,16.34
2022-11-01T18:06:18.878Z,16.31
2022-11-01T18:08:47.735Z,16.25
2022-11-01T18:11:35.163Z,16.17
2022-11-01T18:14:38.489Z,16.20
2022-11-01T18:17:29.259Z,16.23
2022-11-01T18:20:18.106Z,16.26
2022-11-01T18:22:56.597Z,16.21
2022-11-01T18:25:40.768Z,16.02
2022-11-01T18:28:16.742Z,15.90
2022-11-01T18:30:48.970Z,15.78
2022-11-01T18:33:41.628Z,15.75
2022-11-01T18:36:20.040Z,15.72
2022-11-01T18:39:12.728Z,15.73
2022-11-01T18:41:39.603Z,15.68
2022-11-01T18:44:11.238Z,15.71
2022-11-01T18:46:50.096Z,15.70
2022-11-01T18:49:17.077Z,15.68
2022-11-01T18:51:44.577Z,15.70
2022-11-01T18:54:11.351Z,15.70
2022-11-01T18:56:39.880Z,15.71
2022-11-01T18:59:15.321Z,15.78
2022-11-01T19:01:42.372Z,15.71
2022-11-01T19:04:14.477Z,15.70
2022-11-01T19:06:41.154Z,15.74
2022-11-01T19:09:29.116Z,15.71
2022-11-01T19:12:35.539Z,15.63
2022-11-01T19:15:13.651Z,15.52
2022-11-01T19:17:47.987Z,15.44
2022-11-01T19:20:23.591Z,15.38
2022-11-01T19:22:50.347Z,15.32
2022-11-01T19:25:22.830Z,15.27
2022-11-01T19:27:52.866Z,15.28
2022-11-01T19:30:28.616Z,15.22
2022-11-01T19:32:59.548Z,15.17
2022-11-01T19:35:26.589Z,15.12
2022-11-01T19:37:55.094Z,15.14
2022-11-01T19:40:28.039Z,15.12
2022-11-01T19:42:57.331Z,15.10
2022-11-01T19:45:32.628Z,15.06
2022-11-01T19:48:02.228Z,15.02
2022-11-01T19:50:39.943Z,14.96
2022-11-01T19:53:20.681Z,14.91
2022-11-01T19:55:58.355Z,14.88
2022-11-01T19:58:39.358Z,14.89
2022-11-01T20:01:08.774Z,14.86
2022-11-01T20:03:46.065Z,14.87
2022-11-01T20:06:42.997Z,14.84
2022-11-01T20:09:16.597Z,14.78
2022-11-01T20:11:43.490Z,14.76
2022-11-01T20:14:10.327Z,14.75
2022-11-01T20:16:36.956Z,14.71
2022-11-01T20:19:03.773Z,14.70
2022-11-01T20:21:30.429Z,14.72
2022-11-01T20:23:58.698Z,14.68
2022-11-01T20:26:25.638Z,14.62
2022-11-01T20:28:52.329Z,14.56
2022-11-01T20:31:19.593Z,14.49
2022-11-01T20:33:50.676Z,14.44
2022-11-01T20:36:17.431Z,14.37
2022-11-01T20:38:44.669Z,14.34
2022-11-01T20:41:13.055Z,14.29
2022-11-01T20:43:40.081Z,14.29
2022-11-01T20:46:07.782Z,14.27
2022-11-01T20:48:34.538Z,14.26
2022-11-01T20:51:01.437Z,14.19
2022-11-01T20:53:29.903Z,14.18
2022-11-01T20:55:56.874Z,14.09
2022-11-01T20:58:23.530Z,14.00
2022-11-01T21:00:51.626Z,14.04
2022-11-01T21:03:20.933Z,14.05
2022-11-01T21:05:49.377Z,13.99
2022-11-01T21:08:24.047Z,13.97
2022-11-01T21:11:02.316Z,14.00
2022-11-01T21:13:37.074Z,13.97
2022-11-01T21:16:14.066Z,13.96
2022-11-01T21:18:44.489Z,14.00
2022-11-01T21:21:13.955Z,14.05
2022-11-01T21:23:42.971Z,14.05
2022-11-01T21:26:17.489Z,14.04
2022-11-01T21:29:02.811Z,14.05
2022-11-01T21:31:31.130Z,14.00
2022-11-01T21:34:01.801Z,13.98
2022-11-01T21:36:33.245Z,14.00
2022-11-01T21:39:11.307Z,14.06
2022-11-01T21:41:44.349Z,14.09
2022-11-01T21:44:30.846Z,14.12
2022-11-01T21:47:06.565Z,14.09
2022-11-01T21:49:33.694Z,14.10
2022-11-01T21:52:03.646Z,14.18
2022-11-01T21:54:33.999Z,14.19
2022-11-01T21:57:01.356Z,14.21
2022-11-01T21:59:28.815Z,14.17
2022-11-01T22:01:57.101Z,14.16
2022-11-01T22:04:28.503Z,14.03
2022-11-01T22:06:56.751Z,14.08
2022-11-01T22:09:23.464Z,14.08
2022-11-01T22:11:50.067Z,14.07
2022-11-01T22:14:16.621Z,14.07
2022-11-01T22:16:43.546Z,14.05
2022-11-01T22:19:10.869Z,14.06
2022-11-01T22:21:40.431Z,14.02
2022-11-01T22:24:07.629Z,14.05
2022-11-01T22:26:34.758Z,14.07
2022-11-01T22:29:02.193Z,14.06
2022-11-01T22:31:29.126Z,14.04
2022-11-01T22:33:57.185Z,14.04
2022-11-01T22:36:29.646Z,13.96
2022-11-01T22:38:58.822Z,13.94
2022-11-01T22:41:34.178Z,13.91
2022-11-01T22:44:10.001Z,13.91
2022-11-01T22:46:52.350Z,13.84
2022-11-01T22:49:32.645Z,13.75
2022-11-01T22:52:06.932Z,13.72
2022-11-01T22:54:47.473Z,13.70
2022-11-01T22:57:31.581Z,13.68
2022-11-01T23:00:02.179Z,13.68
2022-11-01T23:02:30.218Z,13.64
2022-11-01T23:05:00.018Z,13.66
2022-11-01T23:07:51.637Z,13.60
2022-11-01T23:10:37.940Z,13.60
2022-11-01T23:13:37.069Z,13.57
2022-11-01T23:16:19.963Z,13.47
2022-11-01T23:18:46.580Z,13.48
2022-11-01T23:21:13.233Z,13.53
2022-11-01T23:23:42.776Z,13.48
2022-11-01T23:26:10.324Z,13.49
2022-11-01T23:28:41.800Z,13.51
2022-11-01T23:31:08.394Z,13.44
2022-11-01T23:33:39.932Z,13.45
2022-11-01T23:36:16.250Z,13.41
2022-11-01T23:38:56.563Z,13.37
2022-11-01T23:41:32.352Z,13.35
2022-11-01T23:44:01.515Z,13.36
2022-11-01T23:46:28.206Z,13.28
2022-11-01T23:49:10.597Z,13.27
2022-11-01T23:51:37.332Z,13.32
2022-11-01T23:54:04.203Z,13.38
2022-11-01T23:56:30.775Z,13.37
2022-11-01T23:59:03.821Z,13.40
